Time;durP1;ratioP1;P1;durP2;ratioP2;P2;SDS_P1;SDS_P2;PMS_P1;PMS_P2;Temp;Humidity;BMP_temperature;BMP_pressure;BME280_temperature;BME280_humidity;BME280_pressure;Samples;Min_cycle;Max_cycle;Signal;HPM_P1;HPM_P2
2023/12/30 00:00:58;;;;;;;;;;;;;;;;;;5068501;28;19913;-55
2023/12/30 00:03:24;;;;;;;;;;;;;;;;;;5068504;28;19909;-57
2023/12/30 00:05:51;;;;;;;;;;;;;;;;;;5068303;28;19920;-56
2023/12/30 00:08:17;;;;;;;;;;;;;;;;;;5068358;28;19907;-55
2023/12/30 00:10:43;;;;;;;;;;;;;;;;;;5068653;28;19963;-58
2023/12/30 00:13:09;;;;;;;;;;;;;;;;;;5068397;28;19904;-56
2023/12/30 00:15:35;;;;;;;;;;;;;;;;;;5068566;28;19920;-52
2023/12/30 00:18:02;;;;;;;;;;;;;;;;;;5068206;28;20312;-54
2023/12/30 00:20:29;;;;;;;;;;;;;;;;;;5068329;28;20013;-49
2023/12/30 00:22:55;;;;;;;;;;;;;;;;;;5067860;28;19909;-50
2023/12/30 00:25:22;;;;;;;;;;;;;;;;;;5068193;28;19919;-54
2023/12/30 00:27:51;;;;;;;;;;;;;;;;;;5067724;28;19911;-53
2023/12/30 00:30:17;;;;;;;;;;;;;;;;;;5067899;28;19913;-54
2023/12/30 00:32:44;;;;;;;;;;;;;;;;;;5067678;28;19912;-55
2023/12/30 00:35:10;;;;;;;;;;;;;;;;;;5067886;28;19919;-54
2023/12/30 00:37:36;;;;;;;;;;;;;;;;;;5067623;28;19959;-57
2023/12/30 00:40:02;;;;;;;;;;;;;;;;;;5067494;28;20184;-53
2023/12/30 00:42:28;;;;;;;;;;;;;;;;;;5067346;28;19932;-55
2023/12/30 00:44:55;;;;;;;;;;;;;;;;;;5067729;28;19917;-50
2023/12/30 00:47:21;;;;;;;;;;;;;;;;;;5066792;28;19933;-51
2023/12/30 00:49:47;;;;;;;;;;;;;;;;;;5067738;28;19919;-52
2023/12/30 00:52:13;;;;;;;;;;;;;;;;;;5067552;28;19924;-57
2023/12/30 00:54:40;;;;;;;;;;;;;;;;;;5067499;28;19913;-53
2023/12/30 00:57:06;;;;;;;;;;;;;;;;;;5067414;28;19917;-55
2023/12/30 00:59:32;;;;;;;;;;;;;;;;;;5067350;28;19932;-54
2023/12/30 01:01:59;;;;;;;;;;;;;;;;;;5066854;28;19909;-53
2023/12/30 01:04:25;;;;;;;;;;;;;;;;;;5066850;28;19905;-54
2023/12/30 01:06:52;;;;;;;;;;;;;;;;;;5066906;28;19908;-51
2023/12/30 01:09:18;;;;;;;;;;;;;;;;;;5066734;28;19909;-51
2023/12/30 01:11:44;;;;;;;;;;;;;;;;;;5067146;28;20279;-53
2023/12/30 01:14:11;;;;;;;;;;;;;;;;;;5067037;28;19943;-51
2023/12/30 01:16:37;;;;;;;;;;;;;;;;;;5066998;28;20209;-53
2023/12/30 01:19:03;;;;;;;;;;;;;;;;;;5066878;28;19947;-57
2023/12/30 01:21:30;;;;;;;;;;;;;;;;;;5067305;28;19919;-52
2023/12/30 01:23:56;;;;;;;;;;;;;;;;;;5066855;28;19920;-50
2023/12/30 01:26:22;;;;;;;;;;;;;;;;;;5067186;28;20049;-51
2023/12/30 01:28:48;;;;;;;;;;;;;;;;;;5066829;28;19909;-53
2023/12/30 01:31:17;;;;;;;;;;;;;;;;;;5066952;28;19908;-53
2023/12/30 01:33:43;;;;;;;;;;;;;;;;;;5066645;28;19909;-53
2023/12/30 01:36:09;;;;;;;;;;;;;;;;;;5067056;28;19909;-51
2023/12/30 01:38:35;;;;;;;;;;;;;;;;;;5066644;28;20211;-53
2023/12/30 01:41:02;;;;;;;;;;;;;;;;;;5066788;28;19909;-54
2023/12/30 01:43:28;;;;;;;;;;;;;;;;;;5066398;28;19920;-53
2023/12/30 01:45:54;;;;;;;;;;;;;;;;;;5066007;28;19909;-52
2023/12/30 01:48:20;;;;;;;;;;;;;;;;;;5066058;28;19908;-55
2023/12/30 01:50:47;;;;;;;;;;;;;;;;;;5066415;28;19984;-56
2023/12/30 01:53:13;;;;;;;;;;;;;;;;;;5066419;28;19936;-53
2023/12/30 01:55:39;;;;;;;;;;;;;;;;;;5066455;28;19913;-54
2023/12/30 01:58:05;;;;;;;;;;;;;;;;;;5066262;28;19919;-53
2023/12/30 02:00:32;;;;;;;;;;;;;;;;;;5066267;28;19913;-53
2023/12/30 02:02:58;;;;;;;;;;;;;;;;;;5065867;28;20018;-54
2023/12/30 02:05:24;;;;;;;;;;;;;;;;;;5066405;28;19916;-53
2023/12/30 02:07:50;;;;;;;;;;;;;;;;;;5065839;28;19943;-53
2023/12/30 02:10:16;;;;;;;;;;;;;;;;;;5066247;28;20059;-53
2023/12/30 02:12:43;;;;;;;;;;;;;;;;;;5066065;28;19905;-54
2023/12/30 02:15:09;;;;;;;;;;;;;;;;;;5064834;28;20235;-54
2023/12/30 02:17:35;;;;;;;;;;;;;;;;;;5063809;28;19908;-54
2023/12/30 02:20:01;;;;;;;;;;;;;;;;;;5051073;28;20196;-55
2023/12/30 02:22:27;;;;;;;;;;;;;;;;;;5064423;28;19913;-56
2023/12/30 02:24:59;;;;;;;;;;;;;;;;;;5065078;28;20226;-55
2023/12/30 02:27:25;;;;;;;;;;;;;;;;;;5065313;28;19904;-55
2023/12/30 02:29:51;;;;;;;;;;;;;;;;;;5065722;28;19954;-56
2023/12/30 02:32:18;;;;;;;;;;;;;;;;;;5064305;28;19908;-55
2023/12/30 02:34:44;;;;;;;;;;;;;;;;;;5084590;28;19920;-57
2023/12/30 02:37:11;;;;;;;;;;;;;;;;;;5072165;28;20231;-57
2023/12/30 02:39:37;;;;;;;;;;;;;;;;;;5064767;28;19913;-56
2023/12/30 02:42:03;;;;;;;;;;;;;;;;;;5063570;28;20181;-55
2023/12/30 02:44:29;;;;;;;;;;;;;;;;;;5064633;28;19925;-59
2023/12/30 02:46:55;;;;;;;;;;;;;;;;;;5064669;28;19909;-55
2023/12/30 02:49:22;;;;;;;;;;;;;;;;;;5076444;28;19905;-55
2023/12/30 02:51:48;;;;;;;;;;;;;;;;;;5076506;28;20105;-55
2023/12/30 02:54:14;;;;;;;;;;;;;;;;;;5064200;28;19976;-61
2023/12/30 02:56:40;;;;;;;;;;;;;;;;;;5063869;28;20134;-54
2023/12/30 02:59:06;;;;;;;;;;;;;;;;;;5064249;28;19995;-57
2023/12/30 03:01:33;;;;;;;;;;;;;;;;;;5064810;28;19944;-58
2023/12/30 03:03:59;;;;;;;;;;;;;;;;;;5064336;28;19913;-55
2023/12/30 03:06:25;;;;;;;;;;;;;;;;;;5064737;28;19951;-55
2023/12/30 03:08:51;;;;;;;;;;;;;;;;;;5064225;28;19905;-57
2023/12/30 03:11:17;;;;;;;;;;;;;;;;;;5064764;28;19985;-57
2023/12/30 03:13:44;;;;;;;;;;;;;;;;;;5064479;28;19912;-58
2023/12/30 03:16:16;;;;;;;;;;;;;;;;;;5084716;28;19920;-54
2023/12/30 03:18:43;;;;;;;;;;;;;;;;;;5084485;28;19904;-57
2023/12/30 03:21:09;;;;;;;;;;;;;;;;;;5084863;28;19912;-56
2023/12/30 03:23:35;;;;;;;;;;;;;;;;;;5082877;28;20181;-54
2023/12/30 03:26:02;;;;;;;;;;;;;;;;;;5064071;28;19913;-55
2023/12/30 03:28:28;;;;;;;;;;;;;;;;;;5063982;28;20096;-57
2023/12/30 03:30:54;;;;;;;;;;;;;;;;;;5064389;28;19920;-57
2023/12/30 03:33:20;;;;;;;;;;;;;;;;;;5064185;28;19905;-54
2023/12/30 03:35:46;;;;;;;;;;;;;;;;;;5064185;28;19913;-59
2023/12/30 03:38:13;;;;;;;;;;;;;;;;;;5063156;28;20251;-55
2023/12/30 03:40:39;;;;;;;;;;;;;;;;;;5064246;28;19920;-55
2023/12/30 03:43:05;;;;;;;;;;;;;;;;;;5063756;28;19912;-54
2023/12/30 03:45:31;;;;;;;;;;;;;;;;;;5063749;28;19951;-55
2023/12/30 03:47:57;;;;;;;;;;;;;;;;;;5063851;28;20193;-56
2023/12/30 03:50:24;;;;;;;;;;;;;;;;;;5062929;28;19926;-55
2023/12/30 03:52:51;;;;;;;;;;;;;;;;;;5063771;28;19905;-54
2023/12/30 03:55:17;;;;;;;;;;;;;;;;;;5063903;28;20092;-56
2023/12/30 03:57:43;;;;;;;;;;;;;;;;;;5063863;28;19912;-57
2023/12/30 04:00:09;;;;;;;;;;;;;;;;;;5064014;28;20193;-55
2023/12/30 04:02:36;;;;;;;;;;;;;;;;;;5063534;28;19915;-54
2023/12/30 04:05:02;;;;;;;;;;;;;;;;;;5063795;28;20193;-54
2023/12/30 04:07:28;;;;;;;;;;;;;;;;;;5063552;28;20197;-54
2023/12/30 04:09:55;;;;;;;;;;;;;;;;;;5066704;28;19951;-56
2023/12/30 04:12:21;;;;;;;;;;;;;;;;;;5067436;28;19908;-55
2023/12/30 04:14:47;;;;;;;;;;;;;;;;;;5067570;28;20104;-56
2023/12/30 04:17:13;;;;;;;;;;;;;;;;;;5067459;28;19911;-54
2023/12/30 04:19:39;;;;;;;;;;;;;;;;;;5067401;28;19916;-55
2023/12/30 04:22:06;;;;;;;;;;;;;;;;;;5067047;28;19911;-54
2023/12/30 04:24:32;;;;;;;;;;;;;;;;;;5067292;28;19984;-54
2023/12/30 04:26:58;;;;;;;;;;;;;;;;;;5066653;28;19904;-54
2023/12/30 04:29:26;;;;;;;;;;;;;;;;;;5066929;28;19905;-58
2023/12/30 04:31:52;;;;;;;;;;;;;;;;;;5067066;28;19905;-57
2023/12/30 04:34:18;;;;;;;;;;;;;;;;;;5067124;28;20051;-55
2023/12/30 04:36:44;;;;;;;;;;;;;;;;;;5066958;28;19912;-55
2023/12/30 04:39:10;;;;;;;;;;;;;;;;;;5066971;28;19900;-54
2023/12/30 04:41:37;;;;;;;;;;;;;;;;;;5067233;28;19905;-54
2023/12/30 04:44:03;;;;;;;;;;;;;;;;;;5066829;28;19909;-57
2023/12/30 04:46:29;;;;;;;;;;;;;;;;;;5067380;28;19913;-56
2023/12/30 04:48:55;;;;;;;;;;;;;;;;;;5067179;28;19905;-57
2023/12/30 04:51:21;;;;;;;;;;;;;;;;;;5066535;28;19925;-54
2023/12/30 04:53:47;;;;;;;;;;;;;;;;;;5066749;28;19988;-54
2023/12/30 04:56:14;;;;;;;;;;;;;;;;;;5067055;28;19948;-53
2023/12/30 04:58:40;;;;;;;;;;;;;;;;;;5066700;28;19905;-55
2023/12/30 05:01:08;;;;;;;;;;;;;;;;;;5066986;28;19920;-55
2023/12/30 05:03:34;;;;;;;;;;;;;;;;;;5066658;28;19916;-57
2023/12/30 05:06:00;;;;;;;;;;;;;;;;;;5066836;28;20200;-56
2023/12/30 05:08:26;;;;;;;;;;;;;;;;;;5066285;28;19944;-55
2023/12/30 05:10:53;;;;;;;;;;;;;;;;;;5066883;28;19970;-55
2023/12/30 05:13:19;;;;;;;;;;;;;;;;;;5066326;28;19904;-54
2023/12/30 05:15:45;;;;;;;;;;;;;;;;;;5066262;28;19984;-54
2023/12/30 05:18:11;;;;;;;;;;;;;;;;;;5066201;28;19936;-53
2023/12/30 05:20:38;;;;;;;;;;;;;;;;;;5065755;28;19920;-55
2023/12/30 05:23:04;;;;;;;;;;;;;;;;;;5065980;28;20215;-62
2023/12/30 05:25:30;;;;;;;;;;;;;;;;;;5066310;28;19919;-56
2023/12/30 05:27:56;;;;;;;;;;;;;;;;;;5065311;28;19909;-56
2023/12/30 05:30:23;;;;;;;;;;;;;;;;;;5066090;28;20205;-54
2023/12/30 05:32:49;;;;;;;;;;;;;;;;;;5065957;28;19927;-59
2023/12/30 05:35:15;;;;;;;;;;;;;;;;;;5066113;28;19976;-55
2023/12/30 05:37:41;;;;;;;;;;;;;;;;;;5065784;28;20193;-53
2023/12/30 05:40:08;;;;;;;;;;;;;;;;;;5065980;28;19952;-54
2023/12/30 05:42:34;;;;;;;;;;;;;;;;;;5065523;28;19951;-57
2023/12/30 05:45:00;;;;;;;;;;;;;;;;;;5065741;28;19983;-56
2023/12/30 05:47:26;;;;;;;;;;;;;;;;;;5073607;28;20018;-55
2023/12/30 05:49:53;;;;;;;;;;;;;;;;;;5065766;28;19944;-53
2023/12/30 05:52:19;;;;;;;;;;;;;;;;;;5073767;28;19962;-55
2023/12/30 05:54:45;;;;;;;;;;;;;;;;;;5085561;28;19944;-53
2023/12/30 05:57:11;;;;;;;;;;;;;;;;;;5085487;28;20192;-55
2023/12/30 05:59:38;;;;;;;;;;;;;;;;;;5085655;28;19912;-55
2023/12/30 06:02:05;;;;;;;;;;;;;;;;;;5065809;28;19976;-54
2023/12/30 06:04:31;;;;;;;;;;;;;;;;;;5065359;28;19913;-54
2023/12/30 06:06:57;;;;;;;;;;;;;;;;;;5065410;28;20082;-57
2023/12/30 06:09:23;;;;;;;;;;;;;;;;;;5065251;28;19968;-57
2023/12/30 06:11:50;;;;;;;;;;;;;;;;;;5065852;28;19918;-55
2023/12/30 06:14:16;;;;;;;;;;;;;;;;;;5065208;28;19905;-55
2023/12/30 06:16:42;;;;;;;;;;;;;;;;;;5065180;28;19909;-54
2023/12/30 06:19:08;;;;;;;;;;;;;;;;;;5065198;28;19912;-57
2023/12/30 06:21:34;;;;;;;;;;;;;;;;;;5065097;28;19920;-54
2023/12/30 06:24:01;;;;;;;;;;;;;;;;;;5064817;28;20193;-55
2023/12/30 06:26:27;;;;;;;;;;;;;;;;;;5065650;28;19931;-56
2023/12/30 06:28:53;;;;;;;;;;;;;;;;;;5064927;28;19912;-56
2023/12/30 06:31:19;;;;;;;;;;;;;;;;;;5065270;28;19980;-53
2023/12/30 06:33:45;;;;;;;;;;;;;;;;;;5065022;28;20100;-54
2023/12/30 06:36:11;;;;;;;;;;;;;;;;;;5065285;28;19908;-53
2023/12/30 06:38:38;;;;;;;;;;;;;;;;;;5064995;28;20097;-57
2023/12/30 06:41:04;;;;;;;;;;;;;;;;;;5064870;28;19979;-53
2023/12/30 06:43:30;;;;;;;;;;;;;;;;;;5064841;28;19987;-55
2023/12/30 06:45:56;;;;;;;;;;;;;;;;;;5065500;28;19916;-56
2023/12/30 06:48:23;;;;;;;;;;;;;;;;;;5064416;28;20189;-55
2023/12/30 06:50:49;;;;;;;;;;;;;;;;;;5064439;28;20112;-58
2023/12/30 06:53:16;;;;;;;;;;;;;;;;;;5064617;28;19905;-53
2023/12/30 06:55:42;;;;;;;;;;;;;;;;;;5064698;28;19936;-53
2023/12/30 06:58:08;;;;;;;;;;;;;;;;;;5064406;28;19908;-55
2023/12/30 07:00:34;;;;;;;;;;;;;;;;;;5064379;28;19970;-57
2023/12/30 07:03:00;;;;;;;;;;;;;;;;;;5064349;28;20281;-55
2023/12/30 07:05:27;;;;;;;;;;;;;;;;;;5052685;28;19944;-56
2023/12/30 07:07:53;;;;;;;;;;;;;;;;;;5044566;28;19913;-54
2023/12/30 07:10:19;;;;;;;;;;;;;;;;;;5044688;28;20206;-54
2023/12/30 07:12:45;;;;;;;;;;;;;;;;;;5044280;28;19924;-55
2023/12/30 07:15:12;;;;;;;;;;;;;;;;;;5044384;28;19965;-54
2023/12/30 07:17:38;;;;;;;;;;;;;;;;;;5044585;28;19912;-55
2023/12/30 07:20:04;;;;;;;;;;;;;;;;;;5044424;28;19937;-55
2023/12/30 07:22:30;;;;;;;;;;;;;;;;;;5044647;28;19972;-55
2023/12/30 07:24:56;;;;;;;;;;;;;;;;;;5044656;28;19985;-55
2023/12/30 07:27:23;;;;;;;;;;;;;;;;;;5044129;28;19907;-54
2023/12/30 07:29:49;;;;;;;;;;;;;;;;;;5044428;28;19920;-55
2023/12/30 07:32:15;;;;;;;;;;;;;;;;;;5044226;28;19948;-55
2023/12/30 07:34:41;;;;;;;;;;;;;;;;;;5044619;28;19913;-55
2023/12/30 07:37:07;;;;;;;;;;;;;;;;;;5044167;28;20199;-55
2023/12/30 07:39:34;;;;;;;;;;;;;;;;;;5044532;28;19913;-56
2023/12/30 07:42:00;;;;;;;;;;;;;;;;;;5043741;28;19905;-53
2023/12/30 07:44:26;;;;;;;;;;;;;;;;;;5046435;28;19905;-56
2023/12/30 07:46:52;;;;;;;;;;;;;;;;;;5048437;28;19912;-57
2023/12/30 07:49:18;;;;;;;;;;;;;;;;;;5048163;28;19905;-55
2023/12/30 07:51:45;;;;;;;;;;;;;;;;;;5048122;28;19921;-55
2023/12/30 07:54:12;;;;;;;;;;;;;;;;;;5048271;28;19905;-56
2023/12/30 07:56:39;;;;;;;;;;;;;;;;;;5048071;28;19905;-54
2023/12/30 07:59:05;;;;;;;;;;;;;;;;;;5048033;28;19937;-56
2023/12/30 08:01:31;;;;;;;;;;;;;;;;;;5048467;28;19936;-56
2023/12/30 08:03:57;;;;;;;;;;;;;;;;;;5047488;28;19913;-59
2023/12/30 08:06:23;;;;;;;;;;;;;;;;;;5048212;28;19928;-59
2023/12/30 08:08:50;;;;;;;;;;;;;;;;;;5047482;28;19912;-54
2023/12/30 08:11:16;;;;;;;;;;;;;;;;;;5048128;28;19917;-55
2023/12/30 08:13:42;;;;;;;;;;;;;;;;;;5047506;28;19944;-53
2023/12/30 08:16:08;;;;;;;;;;;;;;;;;;5048308;28;20205;-55
2023/12/30 08:18:34;;;;;;;;;;;;;;;;;;5047626;28;19906;-55
2023/12/30 08:21:01;;;;;;;;;;;;;;;;;;5047630;28;19913;-56
2023/12/30 08:23:27;;;;;;;;;;;;;;;;;;5047234;28;19909;-56
2023/12/30 08:25:53;;;;;;;;;;;;;;;;;;5047741;28;19913;-55
2023/12/30 08:28:20;;;;;;;;;;;;;;;;;;5047140;28;20201;-55
2023/12/30 08:30:46;;;;;;;;;;;;;;;;;;5047227;28;19917;-56
2023/12/30 08:33:14;;;;;;;;;;;;;;;;;;5047039;28;20131;-56
2023/12/30 08:35:40;;;;;;;;;;;;;;;;;;5047315;28;19920;-55
2023/12/30 08:38:06;;;;;;;;;;;;;;;;;;5047141;28;19913;-55
2023/12/30 08:40:33;;;;;;;;;;;;;;;;;;5047208;28;20068;-56
2023/12/30 08:42:59;;;;;;;;;;;;;;;;;;5046945;28;19916;-54
2023/12/30 08:45:25;;;;;;;;;;;;;;;;;;5047242;28;19917;-55
2023/12/30 08:47:52;;;;;;;;;;;;;;;;;;5046923;28;20259;-54
2023/12/30 08:50:18;;;;;;;;;;;;;;;;;;5052966;28;19917;-54
2023/12/30 08:52:44;;;;;;;;;;;;;;;;;;5066911;28;19921;-55
2023/12/30 09:54:13;;;;;;;;;;;;;;;;;;5076680;28;19976;-51
2023/12/30 09:56:40;;;;;;;;;;;;;;;;;;5076399;28;19913;-50
2023/12/30 09:59:06;;;;;;;;;;;;;;;;;;5083773;28;20096;-54
2023/12/30 10:01:32;;;;;;;;;;;;;;;;;;5096230;28;19979;-51
2023/12/30 10:03:59;;;;;;;;;;;;;;;;;;5096464;27;19910;-53
2023/12/30 10:06:25;;;;;;;;;;;;;;;;;;5091380;28;19912;-53
2023/12/30 10:08:51;;;;;;;;;;;;;;;;;;5076153;28;20219;-55
2023/12/30 10:11:17;;;;;;;;;;;;;;;;;;5076063;28;19905;-52
2023/12/30 10:13:43;;;;;;;;;;;;;;;;;;5076439;28;20365;-60
2023/12/30 10:16:09;;;;;;;;;;;;;;;;;;5076172;28;19949;-55
2023/12/30 10:18:36;;;;;;;;;;;;;;;;;;5060408;28;19917;-52
2023/12/30 10:21:03;;;;;;;;;;;;;;;;;;5057313;27;20196;-53
2023/12/30 10:23:30;;;;;;;;;;;;;;;;;;5058049;27;19917;-53
2023/12/30 10:25:56;;;;;;;;;;;;;;;;;;5057774;28;20282;-53
2023/12/30 10:28:22;;;;;;;;;;;;;;;;;;5057996;28;19913;-54
2023/12/30 10:30:48;;;;;;;;;;;;;;;;;;5057511;27;20018;-54
2023/12/30 10:33:14;;;;;;;;;;;;;;;;;;5057697;28;20236;-52
2023/12/30 10:35:41;;;;;;;;;;;;;;;;;;5057344;28;19943;-50
2023/12/30 10:38:07;;;;;;;;;;;;;;;;;;5057794;27;19909;-57
2023/12/30 10:40:33;;;;;;;;;;;;;;;;;;5057188;28;19935;-53
2023/12/30 10:42:59;;;;;;;;;;;;;;;;;;5051844;28;20221;-54
2023/12/30 10:45:25;;;;;;;;;;;;;;;;;;5037380;28;19984;-59
2023/12/30 10:47:52;;;;;;;;;;;;;;;;;;5037656;28;20185;-53
2023/12/30 10:50:18;;;;;;;;;;;;;;;;;;5037267;28;19913;-53
2023/12/30 10:52:45;;;;;;;;;;;;;;;;;;5037106;28;19971;-55
2023/12/30 10:55:11;;;;;;;;;;;;;;;;;;5023545;28;19906;-52
2023/12/30 10:57:37;;;;;;;;;;;;;;;;;;5024197;28;19958;-53
2023/12/30 11:00:09;;;;;;;;;;;;;;;;;;5032385;28;19905;-53
2023/12/30 11:02:35;;;;;;;;;;;;;;;;;;5043367;28;19953;-53
2023/12/30 11:05:01;;;;;;;;;;;;;;;;;;5043728;28;19911;-54
2023/12/30 11:07:27;;;;;;;;;;;;;;;;;;5043878;28;19914;-53
2023/12/30 11:09:54;;;;;;;;;;;;;;;;;;5103822;27;20195;-47
2023/12/30 11:12:20;;;;;;;;;;;;;;;;;;5148301;27;19952;-50
2023/12/30 11:14:46;;;;;;;;;;;;;;;;;;5148231;27;19903;-50
2023/12/30 11:17:13;;;;;;;;;;;;;;;;;;5128728;27;19913;-50
2023/12/30 11:19:39;;;;;;;;;;;;;;;;;;5043376;28;19905;-47
2023/12/30 11:22:05;;;;;;;;;;;;;;;;;;5043150;28;19917;-55
2023/12/30 11:24:33;;;;;;;;;;;;;;;;;;5043253;28;19905;-54
2023/12/30 11:26:59;;;;;;;;;;;;;;;;;;5043452;28;19997;-52
2023/12/30 11:29:25;;;;;;;;;;;;;;;;;;5043282;28;20131;-52
2023/12/30 11:31:52;;;;;;;;;;;;;;;;;;5043307;28;19920;-52
2023/12/30 11:34:19;;;;;;;;;;;;;;;;;;5054278;28;19908;-58
2023/12/30 11:36:50;;;;;;;;;;;;;;;;;;5063055;28;19912;-48
2023/12/30 11:39:16;;;;;;;;;;;;;;;;;;5062886;28;19905;-53
2023/12/30 11:41:42;;;;;;;;;;;;;;;;;;5062061;28;19932;-49
2023/12/30 11:44:08;;;;;;;;;;;;;;;;;;5061256;28;19912;-53
2023/12/30 11:46:35;;;;;;;;;;;;;;;;;;5061276;28;19951;-51
2023/12/30 11:49:01;;;;;;;;;;;;;;;;;;5061016;28;19904;-54
2023/12/30 11:51:27;;;;;;;;;;;;;;;;;;5061147;28;19936;-53
2023/12/30 11:53:53;;;;;;;;;;;;;;;;;;5061401;28;19955;-51
2023/12/30 11:56:19;;;;;;;;;;;;;;;;;;5060496;28;19905;-52
2023/12/30 11:58:46;;;;;;;;;;;;;;;;;;5062941;28;19940;-53
2023/12/30 12:01:12;;;;;;;;;;;;;;;;;;5062798;28;19905;-54
2023/12/30 12:03:38;;;;;;;;;;;;;;;;;;5062618;28;19916;-50
2023/12/30 12:06:04;;;;;;;;;;;;;;;;;;5061574;28;19932;-52
2023/12/30 12:08:30;;;;;;;;;;;;;;;;;;5062501;28;19919;-51
2023/12/30 12:10:56;;;;;;;;;;;;;;;;;;5062492;28;20189;-53
2023/12/30 12:13:23;;;;;;;;;;;;;;;;;;5063094;28;19984;-50
2023/12/30 12:15:49;;;;;;;;;;;;;;;;;;5062374;28;19912;-50
2023/12/30 12:18:15;;;;;;;;;;;;;;;;;;5062677;28;19961;-50
2023/12/30 12:20:45;;;;;;;;;;;;;;;;;;5062306;28;19905;-54
2023/12/30 12:23:12;;;;;;;;;;;;;;;;;;5062611;28;19923;-49
2023/12/30 12:25:38;;;;;;;;;;;;;;;;;;5062127;28;19909;-54
2023/12/30 12:28:04;;;;;;;;;;;;;;;;;;5062736;28;19913;-56
2023/12/30 12:30:30;;;;;;;;;;;;;;;;;;5062262;28;19905;-54
2023/12/30 12:32:56;;;;;;;;;;;;;;;;;;5062513;28;19913;-52
2023/12/30 12:35:24;;;;;;;;;;;;;;;;;;5062381;28;20077;-54
2023/12/30 12:37:51;;;;;;;;;;;;;;;;;;5056086;28;19914;-58
2023/12/30 12:40:17;;;;;;;;;;;;;;;;;;5105658;27;20187;-53
2023/12/30 12:42:43;;;;;;;;;;;;;;;;;;5119471;27;19994;-54
2023/12/30 12:45:09;;;;;;;;;;;;;;;;;;5146484;27;19903;-50
2023/12/30 12:47:35;;;;;;;;;;;;;;;;;;5108697;27;19913;-51
2023/12/30 12:50:02;;;;;;;;;;;;;;;;;;5061840;28;19905;-53
2023/12/30 12:52:28;;;;;;;;;;;;;;;;;;5061565;28;19920;-52
2023/12/30 12:54:54;;;;;;;;;;;;;;;;;;5061984;28;19957;-52
2023/12/30 12:57:21;;;;;;;;;;;;;;;;;;5061823;28;19913;-52
2023/12/30 12:59:47;;;;;;;;;;;;;;;;;;5110994;27;20228;-56
2023/12/30 13:02:13;;;;;;;;;;;;;;;;;;5146214;27;19915;-53
2023/12/30 13:04:40;;;;;;;;;;;;;;;;;;5145768;27;20153;-54
2023/12/30 13:07:06;;;;;;;;;;;;;;;;;;5146117;27;19946;-53
2023/12/30 13:09:40;;;;;;;;;;;;;;;;;;5145798;27;19911;-53
2023/12/30 13:12:06;;;;;;;;;;;;;;;;;;5145833;27;19911;-54
2023/12/30 13:14:34;;;;;;;;;;;;;;;;;;5145792;27;20103;-55
2023/12/30 13:17:01;;;;;;;;;;;;;;;;;;5122816;27;19913;-55
2023/12/30 13:19:27;;;;;;;;;;;;;;;;;;5058871;27;19939;-56
2023/12/30 13:21:53;;;;;;;;;;;;;;;;;;5032378;28;19917;-52
2023/12/30 13:24:20;;;;;;;;;;;;;;;;;;5027410;28;19919;-53
2023/12/30 13:26:46;;;;;;;;;;;;;;;;;;5041622;28;19914;-49
2023/12/30 13:29:12;;;;;;;;;;;;;;;;;;5039473;28;19910;-53
2023/12/30 13:31:38;;;;;;;;;;;;;;;;;;5029801;28;19945;-51
2023/12/30 13:34:09;;;;;;;;;;;;;;;;;;5031363;28;19905;-50
2023/12/30 13:36:35;;;;;;;;;;;;;;;;;;5026759;28;19920;-50
2023/12/30 13:39:13;;;;;;;;;;;;;;;;;;5021510;28;19905;-54
2023/12/30 13:41:39;;;;;;;;;;;;;;;;;;5021378;28;19913;-52
2023/12/30 13:44:07;;;;;;;;;;;;;;;;;;5023979;28;19910;-51
2023/12/30 13:51:35;;;;;;;;;;;;;;;;;;5035290;28;20110;-51
2023/12/30 13:54:02;;;;;;;;;;;;;;;;;;5029952;28;20228;-48
2023/12/30 13:56:29;;;;;;;;;;;;;;;;;;5041056;28;19913;-53
2023/12/30 13:58:57;;;;;;;;;;;;;;;;;;5041091;28;19905;-48
2023/12/30 14:01:24;;;;;;;;;;;;;;;;;;5040828;28;19939;-56
2023/12/30 14:03:55;;;;;;;;;;;;;;;;;;5040961;28;19912;-54
2023/12/30 14:06:29;;;;;;;;;;;;;;;;;;5031556;28;19917;-54
2023/12/30 14:08:55;;;;;;;;;;;;;;;;;;5038851;28;20105;-51
2023/12/30 14:11:33;;;;;;;;;;;;;;;;;;5040867;28;19905;-48
2023/12/30 14:13:59;;;;;;;;;;;;;;;;;;5040889;28;19915;-53
2023/12/30 14:16:26;;;;;;;;;;;;;;;;;;5040849;28;19913;-48
2023/12/30 14:18:52;;;;;;;;;;;;;;;;;;5037371;28;19940;-51
2023/12/30 14:21:18;;;;;;;;;;;;;;;;;;5029802;28;19972;-52
2023/12/30 14:23:44;;;;;;;;;;;;;;;;;;5020823;28;19917;-53
2023/12/30 14:26:11;;;;;;;;;;;;;;;;;;5021173;28;19950;-52
2023/12/30 14:28:37;;;;;;;;;;;;;;;;;;5022097;28;19913;-56
2023/12/30 14:31:03;;;;;;;;;;;;;;;;;;5024412;28;19910;-56
2023/12/30 14:33:29;;;;;;;;;;;;;;;;;;5042018;28;19950;-52
2023/12/30 14:35:55;;;;;;;;;;;;;;;;;;5036114;28;20089;-51
2023/12/30 14:38:21;;;;;;;;;;;;;;;;;;5031072;28;19954;-52
2023/12/30 14:40:47;;;;;;;;;;;;;;;;;;5037519;28;19916;-52
2023/12/30 14:43:16;;;;;;;;;;;;;;;;;;5027209;28;20181;-52
2023/12/30 14:45:42;;;;;;;;;;;;;;;;;;5024623;28;19932;-51
2023/12/30 14:48:08;;;;;;;;;;;;;;;;;;5031975;28;19914;-58
2023/12/30 14:50:34;;;;;;;;;;;;;;;;;;5036020;28;19945;-54
2023/12/30 14:53:00;;;;;;;;;;;;;;;;;;5039328;28;20153;-54
2023/12/30 14:55:27;;;;;;;;;;;;;;;;;;5038811;27;19917;-52
2023/12/30 14:57:55;;;;;;;;;;;;;;;;;;5055525;27;20204;-53
2023/12/30 15:00:24;;;;;;;;;;;;;;;;;;5111010;27;19904;-58
2023/12/30 15:02:50;;;;;;;;;;;;;;;;;;5109510;27;19988;-55
2023/12/30 15:05:21;;;;;;;;;;;;;;;;;;5043616;28;19912;-63
2023/12/30 15:07:48;;;;;;;;;;;;;;;;;;5062389;27;19911;-66
2023/12/30 15:10:15;;;;;;;;;;;;;;;;;;5097710;27;20092;-51
2023/12/30 15:12:43;;;;;;;;;;;;;;;;;;5056364;28;19909;-55
2023/12/30 15:15:11;;;;;;;;;;;;;;;;;;5054531;27;19913;-56
2023/12/30 15:17:37;;;;;;;;;;;;;;;;;;5147971;27;19907;-51
2023/12/30 15:20:06;;;;;;;;;;;;;;;;;;5146295;27;19905;-51
2023/12/30 15:22:34;;;;;;;;;;;;;;;;;;5146278;27;19974;-51
2023/12/30 15:25:00;;;;;;;;;;;;;;;;;;5147870;27;20190;-53
2023/12/30 15:27:26;;;;;;;;;;;;;;;;;;5148101;27;19914;-50
2023/12/30 15:29:52;;;;;;;;;;;;;;;;;;5147272;27;19900;-51
2023/12/30 15:32:18;;;;;;;;;;;;;;;;;;5146089;27;19915;-47
2023/12/30 15:34:44;;;;;;;;;;;;;;;;;;5145926;27;19900;-58
2023/12/30 15:37:14;;;;;;;;;;;;;;;;;;5145925;27;19914;-54
2023/12/30 15:39:40;;;;;;;;;;;;;;;;;;5145826;27;19966;-48
2023/12/30 15:42:06;;;;;;;;;;;;;;;;;;5145940;27;20170;-49
2023/12/30 15:44:33;;;;;;;;;;;;;;;;;;5145842;27;19899;-56
2023/12/30 15:46:59;;;;;;;;;;;;;;;;;;5147385;27;20187;-56
2023/12/30 15:49:26;;;;;;;;;;;;;;;;;;5147513;27;19899;-52
2023/12/30 15:51:52;;;;;;;;;;;;;;;;;;5147403;27;19912;-49
2023/12/30 15:54:18;;;;;;;;;;;;;;;;;;5147167;27;19940;-50
2023/12/30 15:56:44;;;;;;;;;;;;;;;;;;5146897;27;20135;-49
2023/12/30 15:59:10;;;;;;;;;;;;;;;;;;5147056;27;19899;-49
2023/12/30 16:01:37;;;;;;;;;;;;;;;;;;5147264;27;20207;-49
2023/12/30 16:04:03;;;;;;;;;;;;;;;;;;5147135;27;19970;-49
2023/12/30 16:06:29;;;;;;;;;;;;;;;;;;5146945;27;19903;-50
2023/12/30 16:08:55;;;;;;;;;;;;;;;;;;5146813;27;19921;-47
2023/12/30 16:11:22;;;;;;;;;;;;;;;;;;5146925;27;20119;-48
2023/12/30 16:13:48;;;;;;;;;;;;;;;;;;5146816;27;19903;-47
2023/12/30 16:16:14;;;;;;;;;;;;;;;;;;5146631;27;20068;-49
2023/12/30 16:18:40;;;;;;;;;;;;;;;;;;5146699;27;19900;-49
2023/12/30 16:21:06;;;;;;;;;;;;;;;;;;5146754;27;19904;-49
2023/12/30 16:23:33;;;;;;;;;;;;;;;;;;5147088;27;20087;-45
2023/12/30 16:25:59;;;;;;;;;;;;;;;;;;5146616;27;19967;-48
2023/12/30 16:28:25;;;;;;;;;;;;;;;;;;5147053;27;19907;-47
2023/12/30 16:30:51;;;;;;;;;;;;;;;;;;5146505;27;19899;-50
2023/12/30 16:33:17;;;;;;;;;;;;;;;;;;5146993;27;20118;-52
2023/12/30 16:35:43;;;;;;;;;;;;;;;;;;5146372;27;19899;-52
2023/12/30 16:38:10;;;;;;;;;;;;;;;;;;5146840;27;19930;-53
2023/12/30 16:40:36;;;;;;;;;;;;;;;;;;5146241;27;19899;-53
2023/12/30 16:43:02;;;;;;;;;;;;;;;;;;5146634;27;19907;-54
2023/12/30 16:45:28;;;;;;;;;;;;;;;;;;5146222;27;20191;-53
2023/12/30 16:47:54;;;;;;;;;;;;;;;;;;5146294;27;19907;-53
2023/12/30 16:50:21;;;;;;;;;;;;;;;;;;5146085;27;19906;-53
2023/12/30 16:52:49;;;;;;;;;;;;;;;;;;5145319;27;20103;-59
2023/12/30 16:55:15;;;;;;;;;;;;;;;;;;5145774;27;19922;-52
2023/12/30 16:57:41;;;;;;;;;;;;;;;;;;5146260;27;19978;-53
2023/12/30 17:00:11;;;;;;;;;;;;;;;;;;5145944;27;19937;-53
2023/12/30 17:02:37;;;;;;;;;;;;;;;;;;5145994;27;19907;-55
2023/12/30 17:05:07;;;;;;;;;;;;;;;;;;5145998;27;19930;-56
2023/12/30 17:07:33;;;;;;;;;;;;;;;;;;5145562;27;19952;-54
2023/12/30 17:10:01;;;;;;;;;;;;;;;;;;5145551;27;20076;-58
2023/12/30 17:12:27;;;;;;;;;;;;;;;;;;5145815;27;19986;-57
2023/12/30 17:14:53;;;;;;;;;;;;;;;;;;5145801;27;19963;-54
2023/12/30 17:17:19;;;;;;;;;;;;;;;;;;5145728;27;19968;-57
2023/12/30 17:19:46;;;;;;;;;;;;;;;;;;5145977;27;19907;-49
2023/12/30 17:22:12;;;;;;;;;;;;;;;;;;5145961;27;19978;-50
2023/12/30 17:24:38;;;;;;;;;;;;;;;;;;5145406;27;19899;-55
2023/12/30 17:27:04;;;;;;;;;;;;;;;;;;5145920;27;19907;-56
2023/12/30 17:29:31;;;;;;;;;;;;;;;;;;5145456;27;19923;-56
2023/12/30 17:31:57;;;;;;;;;;;;;;;;;;5145453;27;19911;-53
2023/12/30 17:34:23;;;;;;;;;;;;;;;;;;5145359;27;19900;-51
2023/12/30 17:36:49;;;;;;;;;;;;;;;;;;5145287;27;20130;-49
2023/12/30 17:39:16;;;;;;;;;;;;;;;;;;5145288;27;19941;-50
2023/12/30 17:41:42;;;;;;;;;;;;;;;;;;5145174;28;19979;-47
2023/12/30 17:44:08;;;;;;;;;;;;;;;;;;5145398;27;19944;-48